createdAt,value
2023-04-09T00:00:53.085Z,3.52
2023-04-09T00:01:53.572Z,3.44
2023-04-09T00:02:52.790Z,3.42
2023-04-09T00:03:52.909Z,3.39
2023-04-09T00:04:53.022Z,3.36
2023-04-09T00:05:53.198Z,3.33
2023-04-09T00:06:53.424Z,3.28
2023-04-09T00:07:53.646Z,3.36
2023-04-09T00:08:54.734Z,3.39
2023-04-09T00:09:55.557Z,3.21
2023-04-09T00:10:55.058Z,3.07
2023-04-09T00:11:55.087Z,3.12
2023-04-09T00:12:54.517Z,3.16
2023-04-09T00:13:55.667Z,3.18
2023-04-09T00:14:54.821Z,3.21
2023-04-09T00:15:55.612Z,3.18
2023-04-09T00:16:56.062Z,3.27
2023-04-09T00:17:55.406Z,3.15
2023-04-09T00:18:57.103Z,3.18
2023-04-09T00:19:55.746Z,3.21
2023-04-09T00:20:56.596Z,3.13
2023-04-09T00:21:56.550Z,3.18
2023-04-09T00:22:56.200Z,3.20
2023-04-09T00:23:56.394Z,3.18
2023-04-09T00:24:57.586Z,3.31
2023-04-09T00:25:56.765Z,3.39
2023-04-09T00:26:57.616Z,3.53
2023-04-09T00:27:57.145Z,3.54
2023-04-09T00:28:57.276Z,3.57
2023-04-09T00:29:57.449Z,3.68
2023-04-09T00:30:57.604Z,3.72
2023-04-09T00:31:57.816Z,3.68
2023-04-09T00:32:57.983Z,3.65
2023-04-09T00:33:59.052Z,3.61
2023-04-09T00:34:59.104Z,3.61
2023-04-09T00:35:58.633Z,3.58
2023-04-09T00:36:58.866Z,3.61
2023-04-09T00:37:59.592Z,3.60
2023-04-09T00:39:00.062Z,3.65
2023-04-09T00:40:00.059Z,3.57
2023-04-09T00:41:01.082Z,3.50
2023-04-09T00:41:59.719Z,3.42
2023-04-09T00:43:00.427Z,3.46
2023-04-09T00:44:00.590Z,3.62
2023-04-09T00:45:00.216Z,3.72
2023-04-09T00:46:00.353Z,3.78
2023-04-09T00:47:02.053Z,3.86
2023-04-09T00:48:00.846Z,3.98
2023-04-09T00:49:01.557Z,4.01
2023-04-09T00:50:01.554Z,4.08
2023-04-09T00:51:01.062Z,4.18
2023-04-09T00:52:01.222Z,4.00
2023-04-09T00:53:02.925Z,3.92
2023-04-09T00:54:02.560Z,3.89
2023-04-09T00:55:01.688Z,3.98
2023-04-09T00:56:01.866Z,4.04
2023-04-09T00:57:02.038Z,4.04
2023-04-09T00:58:03.104Z,4.04
2023-04-09T00:59:02.610Z,4.25
2023-04-09T01:00:03.094Z,4.22
2023-04-09T01:01:02.747Z,4.32
2023-04-09T01:02:03.064Z,4.50
2023-04-09T01:03:03.232Z,4.62
2023-04-09T01:04:03.291Z,4.84
2023-04-09T01:05:03.451Z,4.95
2023-04-09T01:06:05.558Z,5.10
2023-04-09T01:07:03.814Z,5.19
2023-04-09T01:08:03.987Z,5.30
2023-04-09T01:09:04.163Z,5.30
2023-04-09T01:10:04.282Z,5.43
2023-04-09T01:11:04.424Z,5.53
2023-04-09T01:12:04.558Z,5.53
2023-04-09T01:13:05.112Z,5.55
2023-04-09T01:14:04.916Z,5.53
2023-04-09T01:15:05.081Z,5.57
2023-04-09T01:16:05.254Z,5.68
2023-04-09T01:17:06.104Z,5.68
2023-04-09T01:18:05.703Z,5.70
2023-04-09T01:19:05.754Z,5.75
2023-04-09T01:20:05.929Z,5.73
2023-04-09T01:21:06.132Z,5.75
2023-04-09T01:22:06.311Z,5.88
2023-04-09T01:23:06.489Z,5.86
2023-04-09T01:24:07.926Z,5.93
2023-04-09T01:25:06.765Z,5.91
2023-04-09T01:26:07.564Z,5.85
2023-04-09T01:27:07.059Z,5.96
2023-04-09T01:28:07.176Z,6.03
2023-04-09T01:29:07.606Z,6.01
2023-04-09T01:30:07.510Z,6.07
2023-04-09T01:31:07.785Z,6.00
2023-04-09T01:32:07.740Z,6.11
2023-04-09T01:33:07.896Z,5.96
2023-04-09T01:34:08.043Z,6.09
2023-04-09T01:35:08.167Z,6.04
2023-04-09T01:36:09.624Z,6.03
2023-04-09T01:37:08.486Z,6.07
2023-04-09T01:38:10.071Z,6.11
2023-04-09T01:39:09.569Z,6.09
2023-04-09T01:40:08.953Z,6.03
2023-04-09T01:41:10.066Z,6.06
2023-04-09T01:42:09.276Z,6.07
2023-04-09T01:43:10.930Z,6.11
2023-04-09T01:44:10.132Z,6.04
2023-04-09T01:45:10.570Z,6.09
2023-04-09T01:46:10.027Z,6.06
2023-04-09T01:47:11.066Z,6.10
2023-04-09T01:48:10.330Z,6.13
2023-04-09T01:49:10.497Z,6.07
2023-04-09T01:50:10.669Z,6.04
2023-04-09T01:51:10.840Z,6.04
2023-04-09T01:52:11.006Z,6.09
2023-04-09T01:53:11.140Z,6.04
2023-04-09T01:54:12.110Z,6.04
2023-04-09T01:55:11.536Z,6.03
2023-04-09T01:56:11.716Z,6.10
2023-04-09T01:57:11.900Z,6.09
2023-04-09T01:58:12.607Z,6.06
2023-04-09T01:59:12.252Z,6.10
2023-04-09T02:00:12.617Z,6.11
2023-04-09T02:01:13.675Z,6.03
2023-04-09T02:02:12.909Z,5.98
2023-04-09T02:03:13.247Z,6.07
2023-04-09T02:04:14.933Z,6.09
2023-04-09T02:05:13.430Z,6.01
2023-04-09T02:06:14.648Z,6.11
2023-04-09T02:07:13.820Z,6.04
2023-04-09T02:08:15.072Z,6.06
2023-04-09T02:09:14.374Z,6.06
2023-04-09T02:10:15.467Z,6.13
2023-04-09T02:11:15.608Z,6.06
2023-04-09T02:12:15.576Z,6.07
2023-04-09T02:13:14.992Z,6.10
2023-04-09T02:14:15.193Z,6.14
2023-04-09T02:15:15.396Z,6.10
2023-04-09T02:16:15.690Z,6.16
2023-04-09T02:17:15.797Z,6.09
2023-04-09T02:18:16.006Z,6.18
2023-04-09T02:19:16.578Z,6.13
2023-04-09T02:20:16.392Z,6.14
2023-04-09T02:21:16.609Z,6.06
2023-04-09T02:22:16.860Z,6.13
2023-04-09T02:23:16.959Z,6.14
2023-04-09T02:24:17.169Z,6.07
2023-04-09T02:25:17.396Z,6.14
2023-04-09T02:26:18.595Z,6.18
2023-04-09T02:27:17.778Z,6.19
2023-04-09T02:28:17.991Z,6.14
2023-04-09T02:29:18.172Z,6.06
2023-04-09T02:30:18.395Z,6.14
2023-04-09T02:31:18.488Z,6.18
2023-04-09T02:32:18.604Z,6.14
2023-04-09T02:33:18.812Z,6.13
2023-04-09T02:34:19.019Z,6.10
2023-04-09T02:35:19.231Z,6.11
2023-04-09T02:36:19.440Z,6.09
2023-04-09T02:37:20.131Z,6.07
2023-04-09T02:38:19.790Z,6.18
2023-04-09T02:39:19.986Z,6.13
2023-04-09T02:40:20.207Z,6.07
2023-04-09T02:41:20.387Z,6.11
2023-04-09T02:42:20.567Z,6.06
2023-04-09T02:43:20.758Z,5.96
2023-04-09T02:44:21.581Z,6.11
2023-04-09T02:45:21.152Z,6.03
2023-04-09T02:46:21.384Z,6.06
2023-04-09T02:47:22.099Z,5.98
2023-04-09T02:48:22.615Z,5.96
2023-04-09T02:49:22.577Z,6.04
2023-04-09T02:50:22.145Z,6.03
2023-04-09T02:51:22.373Z,5.96
2023-04-09T02:52:22.586Z,5.89
2023-04-09T02:53:22.754Z,5.95
2023-04-09T02:54:22.937Z,5.89
2023-04-09T02:55:23.165Z,5.86
2023-04-09T02:56:23.960Z,5.93
2023-04-09T02:57:24.118Z,5.96
2023-04-09T02:58:23.642Z,5.91
2023-04-09T02:59:23.869Z,5.82
2023-04-09T03:00:24.065Z,5.96
2023-04-09T03:01:25.597Z,5.83
2023-04-09T03:02:25.815Z,5.86
2023-04-09T03:03:24.688Z,5.91
2023-04-09T03:04:24.743Z,5.78
2023-04-09T03:05:26.095Z,5.81
2023-04-09T03:06:25.151Z,5.82
2023-04-09T03:07:26.121Z,5.75
2023-04-09T03:08:25.508Z,5.75
2023-04-09T03:09:25.683Z,5.73
2023-04-09T03:10:25.873Z,5.74
2023-04-09T03:11:27.081Z,5.67
2023-04-09T03:12:26.222Z,5.60
2023-04-09T03:13:27.953Z,5.59
2023-04-09T03:14:26.592Z,5.59
2023-04-09T03:15:27.626Z,5.45
2023-04-09T03:16:26.996Z,5.48
2023-04-09T03:17:27.668Z,5.40
2023-04-09T03:18:28.117Z,5.48
2023-04-09T03:19:28.085Z,5.45
2023-04-09T03:20:27.648Z,5.50
2023-04-09T03:21:27.862Z,5.40
2023-04-09T03:22:28.049Z,5.32
2023-04-09T03:23:28.239Z,5.27
2023-04-09T03:24:29.133Z,5.38
2023-04-09T03:25:28.569Z,5.32
2023-04-09T03:26:28.784Z,5.32
2023-04-09T03:27:29.625Z,5.35
2023-04-09T03:28:30.089Z,5.40
2023-04-09T03:29:29.344Z,5.55
2023-04-09T03:30:29.545Z,5.50
2023-04-09T03:31:30.716Z,5.43
2023-04-09T03:32:29.878Z,5.52
2023-04-09T03:33:30.030Z,5.46
2023-04-09T03:34:30.175Z,5.37
2023-04-09T03:35:30.339Z,5.46
2023-04-09T03:36:30.501Z,5.48
2023-04-09T03:37:30.630Z,5.45
2023-04-09T03:38:30.801Z,5.55
2023-04-09T03:39:31.006Z,5.52
2023-04-09T03:40:32.109Z,5.52
2023-04-09T03:41:31.353Z,5.52
2023-04-09T03:42:31.506Z,5.56
2023-04-09T03:43:32.591Z,5.59
2023-04-09T03:44:31.817Z,5.53
2023-04-09T03:45:32.590Z,5.57
2023-04-09T03:46:32.974Z,5.56
2023-04-09T03:47:33.602Z,5.50
2023-04-09T03:48:32.605Z,5.59
2023-04-09T03:49:33.593Z,5.59
2023-04-09T03:50:32.995Z,5.66
2023-04-09T03:51:33.153Z,5.59
2023-04-09T03:52:33.372Z,5.56
2023-04-09T03:53:33.511Z,5.60
2023-04-09T03:54:34.686Z,5.68
2023-04-09T03:55:34.590Z,5.71
2023-04-09T03:56:35.600Z,5.78
2023-04-09T03:57:34.106Z,5.73
2023-04-09T03:58:34.301Z,5.60
2023-04-09T03:59:35.092Z,5.60
2023-04-09T04:00:34.648Z,5.50
2023-04-09T04:01:34.939Z,5.46
2023-04-09T04:02:36.650Z,5.43
2023-04-09T04:03:37.170Z,5.22
2023-04-09T04:04:35.464Z,5.19
2023-04-09T04:05:35.643Z,5.14
2023-04-09T04:06:35.709Z,4.98
2023-04-09T04:07:36.665Z,4.79
2023-04-09T04:08:36.051Z,4.75
2023-04-09T04:09:36.238Z,4.64
2023-04-09T04:10:36.445Z,4.54
2023-04-09T04:11:36.609Z,4.57
2023-04-09T04:12:36.772Z,4.57
2023-04-09T04:13:38.088Z,4.51
2023-04-09T04:14:38.100Z,4.40
2023-04-09T04:15:37.652Z,4.33
2023-04-09T04:16:37.466Z,4.32
2023-04-09T04:17:38.625Z,4.25
2023-04-09T04:18:37.805Z,4.32
2023-04-09T04:19:37.942Z,4.25
2023-04-09T04:20:39.092Z,4.32
2023-04-09T04:21:39.101Z,4.14
2023-04-09T04:22:39.095Z,4.24
2023-04-09T04:23:38.713Z,4.15
2023-04-09T04:24:38.864Z,4.16
2023-04-09T04:25:39.053Z,4.08
2023-04-09T04:26:39.183Z,4.15
2023-04-09T04:27:39.310Z,4.03
2023-04-09T04:28:39.438Z,3.98
2023-04-09T04:29:39.589Z,3.94
2023-04-09T04:30:40.585Z,3.80
2023-04-09T04:31:41.167Z,3.82
2023-04-09T04:32:40.211Z,3.76
2023-04-09T04:33:41.153Z,3.79
2023-04-09T04:34:40.547Z,3.71
2023-04-09T04:35:40.804Z,3.70
2023-04-09T04:36:42.635Z,3.80
2023-04-09T04:37:41.052Z,3.76
2023-04-09T04:38:42.156Z,3.70
2023-04-09T04:39:41.379Z,3.64
2023-04-09T04:40:42.154Z,3.71
2023-04-09T04:41:41.660Z,3.68
2023-04-09T04:42:42.626Z,3.65
2023-04-09T04:43:42.000Z,3.67
2023-04-09T04:44:42.130Z,3.60
2023-04-09T04:45:42.273Z,3.60
2023-04-09T04:46:42.430Z,3.58
2023-04-09T04:47:42.620Z,3.53
2023-04-09T04:48:43.602Z,3.64
2023-04-09T04:49:42.951Z,3.62
2023-04-09T04:50:43.076Z,3.64
2023-04-09T04:51:43.318Z,3.71
2023-04-09T04:52:43.486Z,3.67
2023-04-09T04:53:44.628Z,3.70
2023-04-09T04:54:43.732Z,3.70
2023-04-09T04:55:44.678Z,3.68
2023-04-09T04:56:44.050Z,3.65
2023-04-09T04:57:45.603Z,3.71
2023-04-09T04:58:44.361Z,3.67
2023-04-09T04:59:44.523Z,3.52
2023-04-09T05:00:45.679Z,3.64
2023-04-09T05:01:45.626Z,3.54
2023-04-09T05:02:45.283Z,3.39
2023-04-09T05:03:45.523Z,3.30
2023-04-09T05:04:46.141Z,3.20
2023-04-09T05:05:45.658Z,3.24
2023-04-09T05:06:45.814Z,3.15
2023-04-09T05:07:48.105Z,3.15
2023-04-09T05:08:46.246Z,2.95
2023-04-09T05:09:47.103Z,2.94
2023-04-09T05:10:46.655Z,2.85
2023-04-09T05:11:46.845Z,2.73
2023-04-09T05:12:47.598Z,2.87
2023-04-09T05:13:47.231Z,2.88
2023-04-09T05:14:47.390Z,2.89
2023-04-09T05:15:47.563Z,2.87
2023-04-09T05:16:47.794Z,2.73
2023-04-09T05:17:48.631Z,2.94
2023-04-09T05:18:50.996Z,2.82
2023-04-09T05:19:48.202Z,2.84
2023-04-09T05:20:48.410Z,2.76
2023-04-09T05:21:48.581Z,2.81
2023-04-09T05:22:48.733Z,2.81
2023-04-09T05:23:48.912Z,2.73
2023-04-09T05:24:49.105Z,2.77
2023-04-09T05:25:49.264Z,2.85
2023-04-09T05:26:50.107Z,2.88
2023-04-09T05:27:49.645Z,2.87
2023-04-09T05:28:49.946Z,2.92
2023-04-09T05:29:50.002Z,2.95
2023-04-09T05:30:50.220Z,3.05
2023-04-09T05:31:50.683Z,3.07
2023-04-09T05:32:50.621Z,2.97
2023-04-09T05:33:50.738Z,3.02
2023-04-09T05:34:52.110Z,2.98
2023-04-09T05:35:51.672Z,3.05
2023-04-09T05:36:51.668Z,3.09
2023-04-09T05:37:52.111Z,3.28
2023-04-09T05:38:51.953Z,3.33
2023-04-09T05:39:52.619Z,3.47
2023-04-09T05:40:52.020Z,3.54
2023-04-09T05:41:53.152Z,3.60
2023-04-09T05:42:52.327Z,3.71
2023-04-09T05:43:54.392Z,3.86
2023-04-09T05:44:52.639Z,4.10
2023-04-09T05:45:52.881Z,4.10
2023-04-09T05:46:52.968Z,4.44
2023-04-09T05:47:53.133Z,4.67
2023-04-09T05:48:53.494Z,4.94
2023-04-09T05:49:53.508Z,5.02
2023-04-09T05:50:55.042Z,5.12
2023-04-09T05:51:54.812Z,5.14
2023-04-09T05:52:56.145Z,5.35
2023-04-09T05:53:54.168Z,5.52
2023-04-09T05:54:55.355Z,5.59
2023-04-09T05:55:54.530Z,5.77
2023-04-09T05:56:54.746Z,5.83
2023-04-09T05:57:54.938Z,5.89
2023-04-09T05:58:55.133Z,5.78
2023-04-09T05:59:55.346Z,5.88
2023-04-09T06:00:56.162Z,5.83
2023-04-09T06:01:55.773Z,5.83
2023-04-09T06:02:55.902Z,5.88
2023-04-09T06:03:58.054Z,5.96
2023-04-09T06:04:57.203Z,6.00
2023-04-09T06:05:56.423Z,6.03
2023-04-09T06:06:56.620Z,6.22
2023-04-09T06:07:57.661Z,6.32
2023-04-09T06:08:56.950Z,6.38
2023-04-09T06:09:57.131Z,6.43
2023-04-09T06:10:57.322Z,6.43
2023-04-09T06:11:58.114Z,6.65
2023-04-09T06:12:58.347Z,6.58
2023-04-09T06:13:57.863Z,6.62
2023-04-09T06:14:58.656Z,6.83
2023-04-09T06:15:59.224Z,6.83
2023-04-09T06:16:58.990Z,6.80
2023-04-09T06:17:59.584Z,6.89
2023-04-09T06:18:59.816Z,6.98
2023-04-09T06:20:00.616Z,7.05
2023-04-09T06:20:59.133Z,6.97
2023-04-09T06:21:59.352Z,7.16
2023-04-09T06:22:59.544Z,7.13
2023-04-09T06:24:00.685Z,7.23
2023-04-09T06:24:59.962Z,7.50
2023-04-09T06:26:00.167Z,7.62
2023-04-09T06:27:01.161Z,7.71
2023-04-09T06:28:00.582Z,7.78
2023-04-09T06:29:00.733Z,7.94
2023-04-09T06:30:01.682Z,8.07
2023-04-09T06:31:01.694Z,8.14
2023-04-09T06:32:01.262Z,8.25
2023-04-09T06:33:01.571Z,8.29
2023-04-09T06:34:01.642Z,8.42
2023-04-09T06:35:02.619Z,8.57
2023-04-09T06:36:03.164Z,9.02
2023-04-09T06:37:02.243Z,9.52
2023-04-09T06:38:02.341Z,10.10
2023-04-09T06:39:03.159Z,10.78
2023-04-09T06:40:02.692Z,11.32
2023-04-09T06:41:02.896Z,11.80
2023-04-09T06:42:03.102Z,12.21
2023-04-09T06:43:04.122Z,12.78
2023-04-09T06:44:03.404Z,13.12
2023-04-09T06:45:03.581Z,13.73
2023-04-09T06:46:03.781Z,14.17
2023-04-09T06:47:03.980Z,14.32
2023-04-09T06:48:04.221Z,14.06
2023-04-09T06:49:04.262Z,13.94
2023-04-09T06:50:04.398Z,13.62
2023-04-09T06:51:04.559Z,13.44
2023-04-09T06:52:04.753Z,13.44
2023-04-09T06:53:04.896Z,13.58
2023-04-09T06:54:05.674Z,13.61
2023-04-09T06:55:05.187Z,13.46
2023-04-09T06:56:05.410Z,13.07
2023-04-09T06:57:05.580Z,12.74
2023-04-09T06:58:06.678Z,12.46
2023-04-09T06:59:05.948Z,12.06
2023-04-09T07:00:06.627Z,11.93
2023-04-09T07:01:06.291Z,11.83
2023-04-09T07:02:07.214Z,12.05
2023-04-09T07:03:07.185Z,12.74
2023-04-09T07:04:06.862Z,13.40
2023-04-09T07:05:06.972Z,14.28
2023-04-09T07:06:07.206Z,14.69
2023-04-09T07:07:07.375Z,14.68
2023-04-09T07:08:07.578Z,14.54
2023-04-09T07:09:07.805Z,14.57
2023-04-09T07:10:07.961Z,14.93
2023-04-09T07:11:08.146Z,15.41
2023-04-09T07:12:09.140Z,15.89
2023-04-09T07:13:09.137Z,16.09
2023-04-09T07:14:09.179Z,16.06
2023-04-09T07:15:08.820Z,15.97
2023-04-09T07:16:09.699Z,16.14
2023-04-09T07:17:09.173Z,16.71
2023-04-09T07:18:09.480Z,16.93
2023-04-09T07:19:09.539Z,17.29
2023-04-09T07:20:09.700Z,17.30
2023-04-09T07:21:09.879Z,17.82
2023-04-09T07:22:10.049Z,18.13
2023-04-09T07:23:10.201Z,18.00
2023-04-09T07:24:10.413Z,17.54
2023-04-09T07:25:10.563Z,17.48
2023-04-09T07:26:10.694Z,17.29
2023-04-09T07:27:12.642Z,16.96
2023-04-09T07:28:11.696Z,16.88
2023-04-09T07:29:11.227Z,16.00
2023-04-09T07:30:11.385Z,15.75
2023-04-09T07:31:11.601Z,15.78
2023-04-09T07:32:11.748Z,16.03
2023-04-09T07:33:11.919Z,16.31
2023-04-09T07:34:13.157Z,16.34
2023-04-09T07:35:12.295Z,16.09
2023-04-09T07:36:13.126Z,15.66
2023-04-09T07:37:14.158Z,15.26
2023-04-09T07:38:12.864Z,14.67
2023-04-09T07:39:13.091Z,14.16
2023-04-09T07:40:14.162Z,13.96
2023-04-09T07:41:13.412Z,13.70
2023-04-09T07:42:14.149Z,13.38
2023-04-09T07:43:13.778Z,13.07
2023-04-09T07:44:13.921Z,13.06
2023-04-09T07:45:15.694Z,13.33
2023-04-09T07:46:14.389Z,13.79
2023-04-09T07:47:15.150Z,14.04
2023-04-09T07:48:14.652Z,13.81
2023-04-09T07:49:14.810Z,13.81
2023-04-09T07:50:15.664Z,13.74
2023-04-09T07:51:16.151Z,13.84
2023-04-09T07:52:17.157Z,14.02
2023-04-09T07:53:15.515Z,14.02
2023-04-09T07:54:15.711Z,14.17
2023-04-09T07:55:16.830Z,14.12
2023-04-09T07:56:16.114Z,14.02
2023-04-09T07:57:18.156Z,13.54
2023-04-09T07:58:16.420Z,13.37
2023-04-09T07:59:16.623Z,13.27
2023-04-09T08:00:16.821Z,13.06
2023-04-09T08:01:17.659Z,13.27
2023-04-09T08:02:17.245Z,13.76
2023-04-09T08:03:17.521Z,13.99
2023-04-09T08:04:18.430Z,14.27
2023-04-09T08:05:17.854Z,14.19
2023-04-09T08:06:17.948Z,14.49
2023-04-09T08:07:18.128Z,14.95
2023-04-09T08:08:18.291Z,15.28
2023-04-09T08:09:18.510Z,15.63
2023-04-09T08:10:18.583Z,15.81
2023-04-09T08:11:18.772Z,15.92
2023-04-09T08:12:18.956Z,16.04
2023-04-09T08:13:19.165Z,16.40
2023-04-09T08:14:19.377Z,16.18
2023-04-09T08:15:19.578Z,15.86
2023-04-09T08:16:19.861Z,15.84
2023-04-09T08:17:19.927Z,16.16
2023-04-09T08:18:20.716Z,16.16
2023-04-09T08:19:20.382Z,16.26
2023-04-09T08:20:20.475Z,16.40
2023-04-09T08:21:20.621Z,16.25
2023-04-09T08:22:20.821Z,15.99
2023-04-09T08:23:21.670Z,15.60
2023-04-09T08:24:21.210Z,15.66
2023-04-09T08:25:21.398Z,15.99
2023-04-09T08:26:21.564Z,15.92
2023-04-09T08:27:21.778Z,15.21
2023-04-09T08:28:21.969Z,15.23
2023-04-09T08:29:22.160Z,15.28
2023-04-09T08:30:23.245Z,15.23
2023-04-09T08:31:24.243Z,15.43
2023-04-09T08:32:22.770Z,15.31
2023-04-09T08:33:22.859Z,15.23
2023-04-09T08:34:23.682Z,15.19
2023-04-09T08:35:25.675Z,14.84
2023-04-09T08:36:23.440Z,14.72
2023-04-09T08:37:23.622Z,14.61
2023-04-09T08:38:23.777Z,14.52
2023-04-09T08:39:23.935Z,14.54
2023-04-09T08:40:25.041Z,15.02
2023-04-09T08:41:24.296Z,15.24
2023-04-09T08:42:24.448Z,15.46
2023-04-09T08:43:33.697Z,15.38
2023-04-09T08:44:26.777Z,14.98
2023-04-09T08:45:25.684Z,14.93
2023-04-09T08:46:25.273Z,14.95
2023-04-09T08:47:25.567Z,15.42
2023-04-09T08:48:26.732Z,15.13
2023-04-09T08:49:25.898Z,15.26
2023-04-09T08:50:26.058Z,15.41
2023-04-09T08:51:26.226Z,15.23
2023-04-09T08:52:26.400Z,15.33
2023-04-09T08:53:26.641Z,15.11
2023-04-09T08:54:26.906Z,15.42
2023-04-09T08:55:26.972Z,15.27
2023-04-09T08:56:27.190Z,14.95
2023-04-09T08:57:27.367Z,14.57
2023-04-09T08:58:28.183Z,14.74
2023-04-09T08:59:28.678Z,15.02
2023-04-09T09:00:27.802Z,15.26
2023-04-09T09:01:28.042Z,15.09
2023-04-09T09:02:28.206Z,14.65
2023-04-09T09:03:29.271Z,14.71
2023-04-09T09:04:28.526Z,14.47
2023-04-09T09:05:29.218Z,14.53
2023-04-09T09:06:28.857Z,14.31
2023-04-09T09:07:29.711Z,14.38
2023-04-09T09:08:29.260Z,14.57
2023-04-09T09:09:29.454Z,14.42
2023-04-09T09:10:29.615Z,14.09
2023-04-09T09:11:29.781Z,13.95
2023-04-09T09:12:29.934Z,13.70
2023-04-09T09:13:30.097Z,13.67
2023-04-09T09:14:30.747Z,13.91
2023-04-09T09:15:32.183Z,14.25
2023-04-09T09:16:30.585Z,14.94
2023-04-09T09:17:30.808Z,15.43
2023-04-09T09:18:32.693Z,15.03
2023-04-09T09:19:31.181Z,14.93
2023-04-09T09:20:31.313Z,15.20
2023-04-09T09:21:31.464Z,15.11
2023-04-09T09:22:31.619Z,15.05
2023-04-09T09:23:31.796Z,14.95
2023-04-09T09:24:31.917Z,14.71
2023-04-09T09:25:32.746Z,14.50
2023-04-09T09:26:33.192Z,14.37
2023-04-09T09:27:32.749Z,14.27
2023-04-09T09:28:32.628Z,13.76
2023-04-09T09:29:32.777Z,13.81
2023-04-09T09:30:32.990Z,13.63
2023-04-09T09:31:33.207Z,13.09
2023-04-09T09:32:35.215Z,12.74
2023-04-09T09:33:33.477Z,12.71
2023-04-09T09:34:33.615Z,13.09
2023-04-09T09:35:33.793Z,13.63
2023-04-09T09:36:34.735Z,13.96
2023-04-09T09:37:34.176Z,14.39
2023-04-09T09:38:36.566Z,14.67
2023-04-09T09:39:34.560Z,14.64
2023-04-09T09:40:34.751Z,14.31
2023-04-09T09:41:34.920Z,13.65
2023-04-09T09:42:35.080Z,13.09
2023-04-09T09:43:35.236Z,13.12
2023-04-09T09:44:36.204Z,13.61
2023-04-09T09:45:35.582Z,14.14
2023-04-09T09:46:37.288Z,14.01
2023-04-09T09:47:35.952Z,14.43
2023-04-09T09:48:36.696Z,14.34
2023-04-09T09:49:36.370Z,14.62
2023-04-09T09:50:36.556Z,14.69
2023-04-09T09:51:36.722Z,14.37
2023-04-09T09:52:36.895Z,13.81
2023-04-09T09:53:37.077Z,13.59
2023-04-09T09:54:37.286Z,13.46
2023-04-09T09:55:38.240Z,13.41
2023-04-09T09:56:37.656Z,13.20
2023-04-09T09:57:37.833Z,13.03
2023-04-09T09:58:37.995Z,13.06
2023-04-09T09:59:38.177Z,13.33
2023-04-09T10:00:38.361Z,13.61
2023-04-09T10:01:39.575Z,13.55
2023-04-09T10:02:38.847Z,13.65
2023-04-09T10:03:38.958Z,13.79
2023-04-09T10:04:39.169Z,13.59
2023-04-09T10:05:39.260Z,13.51
2023-04-09T10:06:40.199Z,13.22
2023-04-09T10:07:39.605Z,13.11
2023-04-09T10:08:39.774Z,13.11
2023-04-09T10:09:40.708Z,13.32
2023-04-09T10:10:40.117Z,13.33
2023-04-09T10:11:40.267Z,13.14
2023-04-09T10:12:40.443Z,13.09
2023-04-09T10:13:40.606Z,13.11
2023-04-09T10:14:41.715Z,13.29
2023-04-09T10:15:42.723Z,13.70
2023-04-09T10:16:41.096Z,13.83
2023-04-09T10:17:41.793Z,13.95
2023-04-09T10:18:41.487Z,14.20
2023-04-09T10:19:41.658Z,14.29
2023-04-09T10:20:41.841Z,14.49
2023-04-09T10:21:42.891Z,14.38
2023-04-09T10:22:43.148Z,14.21
2023-04-09T10:23:42.310Z,13.99
2023-04-09T10:24:42.509Z,13.95
2023-04-09T10:25:42.692Z,14.29
2023-04-09T10:26:42.880Z,14.29
2023-04-09T10:27:43.080Z,14.57
2023-04-09T10:28:43.245Z,14.80
2023-04-09T10:29:43.491Z,14.29
2023-04-09T10:30:43.681Z,14.16
2023-04-09T10:31:43.869Z,13.96
2023-04-09T10:32:45.243Z,13.77
2023-04-09T10:33:44.298Z,13.55
2023-04-09T10:34:44.797Z,13.91
2023-04-09T10:35:45.213Z,14.28
2023-04-09T10:36:46.715Z,14.39
2023-04-09T10:37:45.753Z,14.56
2023-04-09T10:38:45.274Z,14.60
2023-04-09T10:39:45.505Z,14.91
2023-04-09T10:40:45.697Z,14.54
2023-04-09T10:41:45.904Z,14.16
2023-04-09T10:42:47.732Z,13.91
2023-04-09T10:43:48.723Z,13.49
2023-04-09T10:44:46.438Z,13.51
2023-04-09T10:45:47.586Z,13.46
2023-04-09T10:46:47.779Z,13.73
2023-04-09T10:47:47.779Z,13.79
2023-04-09T10:48:47.223Z,13.79
2023-04-09T10:49:47.404Z,13.55
2023-04-09T10:50:47.605Z,13.84
2023-04-09T10:51:49.217Z,14.10
2023-04-09T10:52:48.731Z,14.43
2023-04-09T10:53:48.121Z,14.87
2023-04-09T10:54:48.287Z,15.08
2023-04-09T10:55:48.497Z,15.23
2023-04-09T10:56:49.722Z,15.26
2023-04-09T10:57:48.828Z,15.35
2023-04-09T10:58:49.729Z,15.43
2023-04-09T10:59:49.142Z,15.28
2023-04-09T11:00:49.328Z,15.13
2023-04-09T11:01:50.789Z,15.05
2023-04-09T11:02:49.941Z,14.95
2023-04-09T11:03:49.889Z,14.91
2023-04-09T11:04:50.758Z,14.49
2023-04-09T11:05:50.311Z,14.25
2023-04-09T11:06:52.224Z,14.24
2023-04-09T11:07:50.719Z,14.09
2023-04-09T11:08:51.142Z,13.81
2023-04-09T11:09:51.099Z,13.51
2023-04-09T11:10:52.325Z,13.49
2023-04-09T11:11:52.465Z,13.36
2023-04-09T11:12:52.228Z,13.25
2023-04-09T11:13:52.281Z,13.27
2023-04-09T11:14:51.920Z,13.38
2023-04-09T11:15:52.801Z,13.55
2023-04-09T11:16:52.248Z,13.47
2023-04-09T11:17:53.315Z,13.65
2023-04-09T11:18:52.905Z,13.88
2023-04-09T11:19:53.731Z,13.74
2023-04-09T11:20:52.992Z,13.55
2023-04-09T11:21:53.235Z,13.62
2023-04-09T11:22:53.393Z,13.51
2023-04-09T11:23:53.566Z,13.56
2023-04-09T11:24:53.724Z,13.80
2023-04-09T11:25:54.808Z,13.92
2023-04-09T11:26:54.109Z,14.17
2023-04-09T11:27:54.806Z,14.21
2023-04-09T11:28:54.455Z,14.19
2023-04-09T11:29:54.624Z,14.49
2023-04-09T11:30:55.830Z,14.67
2023-04-09T11:31:55.087Z,14.62
2023-04-09T11:32:55.271Z,14.28
2023-04-09T11:33:55.445Z,13.88
2023-04-09T11:34:55.649Z,13.74
2023-04-09T11:35:55.851Z,13.59
2023-04-09T11:36:56.038Z,13.33
2023-04-09T11:37:56.221Z,13.18
2023-04-09T11:38:57.284Z,13.07
2023-04-09T11:39:57.835Z,13.04
2023-04-09T11:40:57.754Z,13.07
2023-04-09T11:41:57.775Z,12.92
2023-04-09T11:42:57.098Z,12.81
2023-04-09T11:43:57.335Z,12.79
2023-04-09T11:44:59.238Z,12.64
2023-04-09T11:45:58.279Z,12.71
2023-04-09T11:46:57.960Z,12.81
2023-04-09T11:47:58.119Z,12.81
2023-04-09T11:48:58.241Z,12.85
2023-04-09T11:49:58.448Z,13.20
2023-04-09T11:50:59.658Z,13.25
2023-04-09T11:51:59.738Z,13.21
2023-04-09T11:52:59.023Z,13.27
2023-04-09T11:53:59.209Z,13.20
2023-04-09T11:54:59.417Z,13.21
2023-04-09T11:55:59.615Z,13.27
2023-04-09T11:56:59.821Z,13.29
2023-04-09T11:58:00.881Z,13.27
2023-04-09T11:59:00.742Z,13.11
2023-04-09T12:00:03.142Z,13.07
2023-04-09T12:01:00.802Z,13.00
2023-04-09T12:02:00.712Z,13.17
2023-04-09T12:03:02.106Z,13.07
2023-04-09T12:04:02.049Z,13.15
2023-04-09T12:05:01.334Z,13.44
2023-04-09T12:06:01.503Z,13.76
2023-04-09T12:07:01.589Z,13.74
2023-04-09T12:08:02.741Z,13.89
2023-04-09T12:09:02.005Z,13.80
2023-04-09T12:10:02.158Z,13.61
2023-04-09T12:11:02.357Z,13.69
2023-04-09T12:12:02.568Z,13.84
2023-04-09T12:13:02.780Z,13.77
2023-04-09T12:14:02.919Z,13.77
2023-04-09T12:15:03.744Z,13.81
2023-04-09T12:16:03.288Z,13.95
2023-04-09T12:17:04.279Z,14.20
2023-04-09T12:18:03.862Z,14.57
2023-04-09T12:19:03.826Z,14.65
2023-04-09T12:20:03.975Z,14.60
2023-04-09T12:21:04.793Z,14.75
2023-04-09T12:22:06.115Z,14.88
2023-04-09T12:23:04.803Z,14.98
2023-04-09T12:24:04.702Z,15.06
2023-04-09T12:25:04.900Z,14.78
2023-04-09T12:26:05.060Z,14.72
2023-04-09T12:27:07.256Z,14.56
2023-04-09T12:28:05.408Z,14.32
2023-04-09T12:29:05.606Z,14.25
2023-04-09T12:30:05.800Z,14.19
2023-04-09T12:31:05.950Z,14.04
2023-04-09T12:32:06.870Z,13.87
2023-04-09T12:33:09.544Z,13.96
2023-04-09T12:34:06.545Z,13.91
2023-04-09T12:35:06.729Z,14.09
2023-04-09T12:36:06.928Z,14.10
2023-04-09T12:37:07.115Z,14.14
2023-04-09T12:38:08.326Z,14.01
2023-04-09T12:39:07.500Z,13.99
2023-04-09T12:40:07.676Z,13.76
2023-04-09T12:41:08.894Z,13.70
2023-04-09T12:42:08.797Z,13.65
2023-04-09T12:43:08.190Z,13.69
2023-04-09T12:44:08.393Z,13.62
2023-04-09T12:45:08.615Z,13.36
2023-04-09T12:46:08.813Z,13.18
2023-04-09T12:47:08.957Z,13.09
2023-04-09T12:48:09.228Z,13.06
2023-04-09T12:49:09.326Z,13.17
2023-04-09T12:50:10.255Z,13.02
2023-04-09T12:51:09.642Z,13.00
2023-04-09T12:52:09.794Z,13.12
2023-04-09T12:53:10.755Z,13.43
2023-04-09T12:54:10.145Z,13.73
2023-04-09T12:55:12.317Z,13.79
2023-04-09T12:56:10.570Z,13.77
2023-04-09T12:57:11.296Z,13.79
2023-04-09T12:58:10.926Z,13.79
2023-04-09T12:59:11.100Z,13.80
2023-04-09T13:00:11.252Z,13.79
2023-04-09T13:01:11.497Z,13.59
2023-04-09T13:02:11.686Z,13.73
2023-04-09T13:03:12.017Z,13.81
2023-04-09T13:04:12.148Z,13.79
2023-04-09T13:05:12.228Z,13.69
2023-04-09T13:06:12.428Z,13.49
2023-04-09T13:07:13.300Z,13.40
2023-04-09T13:08:12.861Z,13.44